Clover Valley, Nevada Weather observations

Data are for 10 minute period ending at time listed.
 Day   Time   Solar   Ave.   Ave.  Ave.  Vector  Max.   Baro.   Total    
  of    of     Rad.   Air    Rel.  Wind   Wind   Wind  Press.  Precip.   
Year   Day            Temp.  Hum.  Speed  Dir.   Gust                    
2015   (PST)  Kw/m2    F      %     mph   deg.    mph    mb.     in.     
-------------------------------------------------------------------------
  61   14:20   0.38   39.5    55    3.5   206     6.5   814.7    0.00 
  61   14:30   0.67   39.9    53    2.7   132     6.1   814.7    0.00 
  61   14:40   0.51   40.4    55    5.6   209    10.2   814.6    0.00 
  61   14:50   0.41   40.4    54    3.9   227     9.5   814.6    0.00 
  61   15:00   0.37   40.0    54    3.6   265     8.3   814.7    0.00 
  61   15:10   0.34   39.6    54    4.6    15    10.2   814.7    0.00 
  61   15:20   0.20   39.0    54    4.7   336     9.2   814.6    0.00 
  61   15:30   0.08   39.1    53    7.2   326    16.9   814.7    0.00 
  61   15:40   0.09   37.6    55    8.5   334    19.2   814.7    0.00 
  61   15:50   0.09   37.8    54    2.6   340     5.7   814.7    0.00 
  61   16:00   0.10   38.1    57    5.5   287    10.1   814.8    0.00 
  61   16:10   0.15   37.7    59    6.5   256    10.2   814.9    0.00 
  61   16:20   0.11   37.0    62    5.2   253     9.5   815.0    0.00 
  61   16:30   0.03   35.9    67    8.0   333    13.9   815.3    0.00 
  61   16:40   0.10   33.3    84    7.6     4    11.8   815.4    0.00 
  61   16:50   0.08   33.8    80    3.7   344     5.7   815.5    0.00 
  61   17:00   0.04   34.0    81    2.5   258     4.0   815.6    0.00 
  61   17:10   0.01   34.3    81    4.4   239     5.4   815.5    0.00 
  61   17:20   0.01   34.2    81    5.5   247     7.8   815.7    0.00 
  61   17:30   0.01   34.0    81    6.9   230    13.6   816.1    0.00 
  61   17:40   0.00   33.9    77    6.5   222    12.2   816.1    0.00 
  61   17:50   0.00   33.6    78    5.5   230    10.5   816.1    0.00 
  61   18:00   0.00   33.9    74    9.5   238    19.3   816.2    0.00 
  61   18:10   0.00   34.2    70    9.7   240    13.5   816.3    0.00 
  61   18:20   0.00   32.6    78    7.0   225    10.1   816.4    0.00 
  61   18:30   0.00   31.8    82    5.6   220    11.1   816.6    0.00 
  61   18:40   0.00   32.3    79    4.5   239     7.2   816.8    0.00 
  61   18:50   0.00   32.8    78    4.8     6     8.4   817.0    0.00 
  61   19:00   0.00   32.2    81    3.5    50     5.3   817.2    0.00 
  61   19:10   0.00   32.5    82    3.3    72     5.4   817.4    0.00 
  61   19:20   0.00   32.5    82    5.2   119     8.5   817.5    0.00 
  61   19:30   0.00   32.4    81    4.0   136     6.2   817.7    0.00 
  61   19:40   0.00   32.2    80    4.8   124     6.9   817.6    0.00 
  61   19:50   0.00   31.6    81    5.2   152     6.9   817.7    0.00 
  61   20:00   0.00   31.0    85    4.4   175     6.4   817.8    0.00 
  61   20:10   0.00   31.1    87    2.6   225     4.7   818.1    0.00 
  61   20:20   0.00   31.2    86    1.7    79     3.6   818.1    0.00 
  61   20:30   0.00   31.0    86    5.9    61     8.3   818.2    0.00 
  61   20:40   0.00   31.1    86    6.4    67     9.9   818.3    0.00 
  61   20:50   0.00   30.8    88    5.0    76     7.2   818.4    0.00 
  61   21:00   0.00   30.8    89    3.7    83     5.3   818.5    0.00 
  61   21:10   0.00   30.8    89    3.5    67     5.8   818.5    0.00 
  61   21:20   0.00   30.8    90    3.8    72     5.5   818.6    0.00 
  61   21:30   0.00   30.7    90    3.1    46     5.0   818.7    0.00 
  61   21:40   0.00   30.8    90    1.2    15     3.1   818.8    0.00 
  61   21:50   0.00   30.9    90    2.1   190     4.2   818.8    0.00 
  61   22:00   0.00   30.6    91    3.4   196     4.3   818.8    0.00 
  61   22:10   0.00   30.0    91    2.4   217     3.7   818.8    0.00 
  61   22:20   0.00   29.7    92    2.4   254     3.4   818.9    0.00 
  61   22:30   0.00   29.5    93    4.1   205     5.8   819.0    0.00 
  61   22:40   0.00   29.4    92    4.8   200     7.6   818.9    0.00 
  61   22:50   0.00   31.0    85    7.7   193    11.8   818.8    0.00 
  61   23:00   0.00   31.3    83    8.6   206    11.4   818.8    0.00 
  61   23:10   0.00   31.3    83    8.2   215    12.2   818.8    0.00 
  61   23:20   0.00   32.0    78    7.9   228    12.1   818.9    0.00 
  61   23:30   0.00   31.4    83    6.8   206    12.0   819.0    0.00 
  61   23:40   0.00   31.4    82    9.4   220    15.9   819.0    0.00 
  61   23:50   0.00   31.1    83    9.9   207    14.3   819.0    0.00 
  62    0:00   0.00   30.9    86   10.6   214    18.5   819.0    0.00 
  62    0:10   0.00   30.3    89    7.2   236    10.2   819.0    0.00 
  62    0:20   0.00   30.1    90    5.4   224     7.2   819.0    0.00 
  62    0:30   0.00   30.2    88    7.0   216    11.5   819.0    0.00 
  62    0:40   0.00   30.9    83    8.2   218    14.5   819.0    0.00 
  62    0:50   0.00   30.6    86   10.8   200    17.0   819.0    0.00 
  62    1:00   0.00   30.4    87    7.2   179     9.9   818.9    0.00 
  62    1:10   0.00   30.4    88    8.8   177    12.8   819.0    0.00 
  62    1:20   0.00   29.9    92    8.6   197    14.1   818.9    0.00 
  62    1:30   0.00   29.5    95    7.8   193    10.0   819.0    0.00 
  62    1:40   0.00   29.3    96    9.2   189    12.9   819.0    0.00 
  62    1:50   0.00   29.1    96   12.5   190    18.2   818.8    0.00 
  62    2:00   0.00   29.1    96   13.3   203    17.6   818.7    0.00 
  62    2:10   0.00   29.1    96   12.0   212    15.3   818.7    0.00 
  62    2:20   0.00   29.2    96    7.5   225    13.6   818.8    0.00 
  62    2:30   0.00   29.1    96    6.7   227     9.1   818.8    0.00 
  62    2:40   0.00   28.9    97    5.8   213     8.8   818.8    0.00 
  62    2:50   0.00   28.9    97    3.8   206     6.6   818.9    0.00 
  62    3:00   0.00   28.9    97    2.2   213     6.6   819.0    0.00 
  62    3:10   0.00   28.3    95    4.6    31     8.8   819.1    0.00 
  62    3:20   0.00   28.1    94    0.8    62     3.4   819.1    0.00 
  62    3:30   0.00   27.8    95    1.9    71     3.4   819.2    0.00 
  62    3:40   0.00   27.3    96    1.3    32     3.0   819.2    0.00 
  62    3:50   0.00   26.9    96    1.9    36     3.4   819.2    0.00 
  62    4:00   0.00   27.0    96    3.1    50     4.5   819.1    0.00 
  62    4:10   0.00   26.9    95    3.4    49     4.2   819.1    0.00 
  62    4:20   0.00   26.2    94    2.3   219     4.4   819.4    0.00 
  62    4:30   0.00   25.0    95    3.2   178     4.5   819.4    0.00 
  62    4:40   0.00   24.7    96    3.3   156     4.6   819.4    0.00 
  62    4:50   0.00   24.4    96    4.1   166     5.5   819.4    0.00 
  62    5:00   0.00   24.5    96    4.3   130     5.8   819.4    0.00 
  62    5:10   0.00   24.5    96    3.4   110     5.0   819.4    0.00 
  62    5:20   0.00   24.3    96    3.9   162     5.4   819.5    0.00 
  62    5:30   0.00   24.2    96    1.4   199     2.9   819.6    0.00 
  62    5:40   0.00   24.5    96    1.5   126     2.3   819.5    0.00 
  62    5:50   0.00   25.2    96    2.8   118     5.3   819.5    0.00 
  62    6:00   0.00   26.4    92    6.6    41    15.1   819.5    0.00 
  62    6:10   0.00   26.2    88   13.2   356    20.2   819.5    0.00 
  62    6:20   0.01   25.8    89   15.5   353    21.0   819.5    0.00 
  62    6:30   0.01   26.0    83   12.5   345    19.6   819.7    0.00 
  62    6:40   0.02   26.5    76   10.4   341    15.1   819.8    0.00 
  62    6:50   0.04   26.5    71    9.4   329    13.4   820.0    0.00 
  62    7:00   0.06   26.3    66   11.0   333    18.0   820.2    0.00 
  62    7:10   0.07   25.8    66   14.1   345    19.9   820.4    0.00 
  62    7:20   0.07   25.7    66   13.6   343    17.5   820.6    0.00 
  62    7:30   0.09   25.8    64   12.2   342    18.7   820.9    0.00 
  62    7:40   0.15   26.2    58   12.9   335    18.8   821.0    0.00 
  62    7:50   0.25   26.4    58   12.5   325    17.6   821.1    0.00 
  62    8:00   0.35   26.9    58   11.8   322    17.2   821.3    0.00 
  62    8:10   0.31   26.9    57   13.2   324    19.1   821.4    0.00 
  62    8:20   0.39   27.1    57   11.1   329    14.5   821.4    0.00 
  62    8:30   0.43   26.7    55   12.8   335    16.7   821.4    0.00 
  62    8:40   0.46   26.4    55   14.1   343    19.4   821.5    0.00 
  62    8:50   0.48   26.3    55   11.9   353    17.7   821.5    0.00 
  62    9:00   0.50   26.2    54   13.7     6    19.2   821.6    0.01 
  62    9:10   0.53   26.4    55   14.3   359    21.2   821.6    0.00 
  62    9:20   0.55   26.5    57   14.9     5    20.1   821.6    0.00 
  62    9:30   0.58   26.7    58   16.8     0    24.4   821.6    0.00 
  62    9:40   0.60   27.0    57   17.2   354    25.6   821.6    0.00 
  62    9:50   0.62   27.1    58   18.6   351    26.8   821.7    0.00 
  62   10:00   0.75   27.4    57   16.5   357    22.3   821.9    0.00 
  62   10:10   0.74   28.1    55   13.0   354    17.5   821.9    0.00 
  62   10:20   0.73   28.6    52   12.0   345    18.3   821.9    0.00 
  62   10:30   0.71   29.0    51    9.7     9    15.9   821.9    0.00 
  62   10:40   0.71   28.9    54    9.1    34    14.4   822.0    0.00 
  62   10:50   0.70   29.2    48    4.7    40     9.8   822.1    0.00 
  62   11:00   0.74   30.1    45    5.4    19    11.2   822.1    0.00 
  62   11:10   0.80   30.5    51    6.5    21    12.0   822.1    0.00 
  62   11:20   0.79   31.3    48    4.7    19     9.8   822.1    0.00 
  62   11:30   0.80   31.6    44    4.3   358    11.2   822.1    0.00 
  62   11:40   0.39   30.5    46    4.0    11     6.9   822.0    0.00 
  62   11:50   0.44   29.8    50    5.7   185    11.0   822.2    0.00 
  62   12:00   0.22   31.4    51    6.3   222    10.4   822.2    0.00 
  62   12:10   0.06   31.8    48    3.5   186     8.8   822.2    0.00 
  62   12:20   0.29   31.0    47    3.3   294     9.1   822.3    0.00 
  62   12:30   0.08   30.5    44    5.9   339    10.7   822.3    0.00 
  62   12:40   0.21   30.6    42    3.4   317    11.2   822.4    0.00 
  62   12:50   0.32   31.6    40    4.6   322    10.6   822.4    0.00 
  62   13:00   0.29   31.2    42    5.0   348    11.1   822.4    0.00 
  62   13:10   0.17   30.1    42    5.2    16    10.4   822.3    0.00 
  62   13:20   0.23   31.4    41    2.9   318     7.5   822.3    0.00 
  62   13:30   0.52   31.7    39    6.5   317    10.9   822.3    0.00 
  62   13:40   0.32   32.0    41    5.2   311     9.5   822.3    0.00 
  62   13:50   0.01   31.1    40    4.2   321     7.4   822.3    0.00 
  62   14:00   0.00   32.8    37    2.3   246     4.7   822.3    0.00 
  62   14:10   0.04   32.9    34    3.0   172     7.0   822.3    0.00 

Return to Clover Valley graphs page.


Western Regional Climate Center,wrcc@dri.edu